Time;durP1;ratioP1;P1;durP2;ratioP2;P2;SDS_P1;SDS_P2;PMS_P1;PMS_P2;Temp;Humidity;BMP_temperature;BMP_pressure;BME280_temperature;BME280_humidity;BME280_pressure;Samples;Min_cycle;Max_cycle;Signal;HPM_P1;HPM_P2
2023/04/23 01:41:01;;;;;;;38.50;22.90;;;8.60;97.40;;;;;;6180331;22;88879;-84
2023/04/23 01:43:27;;;;;;;39.67;23.02;;;8.80;97.30;;;;;;6026674;23;88611;-83
2023/04/23 01:46:33;;;;;;;39.58;23.65;;;8.90;97.20;;;;;;6009909;23;87144;-84
2023/04/23 02:05:57;;;;;;;34.13;20.80;;;9.40;96.40;;;;;;5980925;23;91442;-83
2023/04/23 02:08:25;;;;;;;31.50;20.52;;;9.50;96.40;;;;;;5966761;23;87028;-82
2023/04/23 02:10:53;;;;;;;31.52;20.83;;;9.60;96.20;;;;;;5978412;23;87302;-83
2023/04/23 02:13:39;;;;;;;32.72;20.75;;;9.60;96.10;;;;;;5923043;23;87306;-83
2023/04/23 02:16:42;;;;;;;31.80;20.45;;;9.60;95.90;;;;;;5842776;23;87624;-82
2023/04/23 02:19:11;;;;;;;34.00;20.33;;;9.70;96.00;;;;;;5839506;24;86287;-83
2023/04/23 02:21:39;;;;;;;28.30;19.15;;;9.70;95.70;;;;;;5830925;24;85766;-83
2023/04/23 02:24:46;;;;;;;33.97;21.23;;;9.80;95.70;;;;;;5806662;24;87136;-84
2023/04/23 02:48:50;;;;;;;29.20;18.55;;;9.80;95.50;;;;;;5868884;23;89362;-83
2023/04/23 02:51:40;;;;;;;27.87;17.93;;;9.70;95.50;;;;;;5847391;23;90949;-81
2023/04/23 02:54:10;;;;;;;28.13;18.60;;;9.70;95.40;;;;;;5790019;24;92055;-82
2023/04/23 03:11:12;;;;;;;28.35;17.77;;;9.70;95.60;;;;;;5804583;24;86269;-82
2023/04/23 03:14:01;;;;;;;26.35;17.20;;;9.70;95.70;;;;;;5803497;24;86130;-81
2023/04/23 03:16:51;;;;;;;26.50;17.20;;;9.80;95.60;;;;;;5788072;24;89811;-83
2023/04/23 03:19:43;;;;;;;25.38;16.88;;;9.80;95.40;;;;;;5748465;24;86733;-81
2023/04/23 03:29:07;;;;;;;25.80;15.68;;;10.00;95.40;;;;;;5761347;24;86324;-82
2023/04/23 03:31:46;;;;;;;26.45;16.55;;;10.00;95.30;;;;;;5764879;23;86992;-81
2023/04/23 03:34:39;;;;;;;25.80;16.98;;;10.00;95.30;;;;;;5711840;24;87736;-81
2023/04/23 03:37:33;;;;;;;22.90;16.52;;;10.00;95.20;;;;;;5811437;24;86775;-82
2023/04/23 04:38:59;;;;;;;14.50;10.82;;;10.00;94.60;;;;;;6186956;22;89390;-83
2023/04/23 04:41:28;;;;;;;16.88;11.48;;;10.00;94.70;;;;;;6045141;22;87107;-83
2023/04/23 05:33:18;;;;;;;14.50;7.63;;;10.80;93.50;;;;;;6198171;22;1366945;-79
2023/04/23 05:36:07;;;;;;;13.10;8.30;;;10.80;93.60;;;;;;6196824;22;87582;-79
2023/04/23 05:43:50;;;;;;;17.70;7.43;;;10.80;93.50;;;;;;6150954;22;87120;-82
2023/04/23 06:04:32;;;;;;;12.63;6.65;;;11.10;92.80;;;;;;6226068;22;88097;-80
2023/04/23 06:13:39;;;;;;;14.20;5.95;;;11.40;92.30;;;;;;6224151;22;87225;-81
2023/04/23 06:16:08;;;;;;;10.30;6.07;;;11.40;92.30;;;;;;6134997;22;85686;-80
2023/04/23 06:18:38;;;;;;;12.10;6.15;;;11.50;92.20;;;;;;6226520;22;85210;-80
2023/04/23 06:21:44;;;;;;;11.43;6.00;;;11.50;92.40;;;;;;6223354;22;89723;-80
2023/04/23 06:34:34;;;;;;;20.05;6.63;;;11.90;91.50;;;;;;5975702;23;85715;-79
2023/04/23 06:37:00;;;;;;;9.00;5.75;;;12.00;91.60;;;;;;5960893;23;91944;-77
2023/04/23 06:39:26;;;;;;;13.75;6.40;;;12.10;92.30;;;;;;5967254;23;85923;-80
2023/04/23 06:41:51;;;;;;;8.80;5.82;;;12.20;92.00;;;;;;5966651;23;85939;-78
2023/04/23 06:44:24;;;;;;;10.45;6.30;;;12.20;91.20;;;;;;5968651;23;86468;-81
2023/04/23 06:47:08;;;;;;;12.02;5.38;;;12.30;91.00;;;;;;5950970;23;85512;-79
2023/04/23 06:49:34;;;;;;;11.90;5.80;;;12.40;91.10;;;;;;5957651;23;86223;-79
2023/04/23 06:54:35;;;;;;;11.13;6.20;;;12.50;91.10;;;;;;6177954;22;87465;-82
2023/04/23 06:57:03;;;;;;;8.25;5.65;;;12.60;91.10;;;;;;6213594;22;86869;-81
2023/04/23 06:59:29;;;;;;;10.23;4.97;;;12.70;90.50;;;;;;6232679;22;85879;-82
2023/04/23 07:01:55;;;;;;;10.98;5.38;;;12.70;90.20;;;;;;6193050;22;86993;-81
2023/04/23 07:04:20;;;;;;;9.90;5.07;;;12.80;90.40;;;;;;6169171;22;90481;-80
2023/04/23 07:06:46;;;;;;;12.00;4.90;;;12.90;90.10;;;;;;6170722;22;88338;-79
2023/04/23 07:09:14;;;;;;;7.95;4.70;;;13.00;89.90;;;;;;6197665;22;86108;-79
2023/04/23 07:12:38;;;;;;;9.07;4.05;;;13.10;90.10;;;;;;6193437;22;85145;-81
2023/04/23 07:15:33;;;;;;;9.00;4.00;;;13.10;89.60;;;;;;6028274;23;91281;-79
2023/04/23 07:18:24;;;;;;;9.98;4.20;;;13.20;90.00;;;;;;5946995;23;85811;-80
2023/04/23 07:21:28;;;;;;;8.00;3.80;;;13.40;89.40;;;;;;5874548;23;86640;-81
2023/04/23 07:24:20;;;;;;;11.32;4.22;;;13.40;86.60;;;;;;5825773;23;86643;-81
2023/04/23 07:37:20;;;;;;;10.10;4.43;;;13.80;86.70;;;;;;5833159;24;86072;-80
2023/04/23 07:39:47;;;;;;;11.43;3.72;;;13.90;85.90;;;;;;5814053;24;89277;-80
2023/04/23 07:42:17;;;;;;;10.90;3.20;;;13.90;85.30;;;;;;5864854;23;87853;-81
2023/04/23 07:44:47;;;;;;;8.98;2.97;;;14.00;86.00;;;;;;5861167;24;86868;-80
2023/04/23 07:47:13;;;;;;;8.45;3.28;;;14.10;84.80;;;;;;5833761;23;85867;-79
2023/04/23 08:04:00;;;;;;;10.48;2.50;;;14.70;80.80;;;;;;6168483;22;88190;-80
2023/04/23 08:06:33;;;;;;;15.15;3.63;;;14.80;80.00;;;;;;6240483;22;85754;-79
2023/04/23 08:09:00;;;;;;;9.10;2.97;;;14.80;82.80;;;;;;6240499;22;85680;-80
2023/04/23 08:11:28;;;;;;;7.93;3.33;;;14.80;79.60;;;;;;6237654;22;86102;-80
2023/04/23 08:14:00;;;;;;;9.52;3.42;;;14.90;82.00;;;;;;6241237;22;85982;-80
2023/04/23 08:16:26;;;;;;;6.75;3.20;;;14.90;80.60;;;;;;6232089;22;86246;-80
2023/04/23 08:18:52;;;;;;;9.00;3.28;;;15.00;80.30;;;;;;6233794;22;86021;-80
2023/04/23 08:21:18;;;;;;;10.35;3.03;;;15.10;78.90;;;;;;6229662;22;86366;-80
2023/04/23 08:23:44;;;;;;;10.30;3.83;;;15.20;79.20;;;;;;6204616;22;89928;-80
2023/04/23 08:26:10;;;;;;;13.35;3.58;;;15.40;80.50;;;;;;6227088;22;85898;-79
2023/04/23 08:28:36;;;;;;;7.60;2.80;;;15.60;81.40;;;;;;6224963;22;86357;-79
2023/04/23 08:31:01;;;;;;;7.57;3.30;;;15.80;80.10;;;;;;6224651;22;86797;-79
2023/04/23 08:33:27;;;;;;;8.77;3.30;;;16.10;76.90;;;;;;6226172;22;86693;-80
2023/04/23 08:35:54;;;;;;;10.38;3.22;;;16.40;75.10;;;;;;6226623;22;86231;-79
2023/04/23 08:38:43;;;;;;;5.85;2.72;;;16.30;76.00;;;;;;6169205;22;86230;-81
2023/04/23 08:41:12;;;;;;;8.52;3.05;;;16.20;74.50;;;;;;6085954;23;86654;-80
2023/04/23 08:46:14;;;;;;;11.02;3.22;;;16.20;74.40;;;;;;6236532;22;86081;-81
2023/04/23 08:48:43;;;;;;;11.38;2.60;;;16.30;74.30;;;;;;6232611;22;85970;-80
2023/04/23 08:51:12;;;;;;;6.60;2.20;;;16.30;74.80;;;;;;6235087;22;87406;-80
2023/04/23 08:53:39;;;;;;;10.20;2.75;;;16.40;73.60;;;;;;6204814;22;88145;-81
2023/04/23 08:56:07;;;;;;;10.10;2.70;;;16.30;72.60;;;;;;6229932;22;86279;-80
2023/04/23 08:58:34;;;;;;;7.15;2.55;;;16.30;74.10;;;;;;6221103;22;91224;-80
2023/04/23 09:01:00;;;;;;;10.80;2.33;;;16.20;73.50;;;;;;6230084;22;85974;-81
2023/04/23 09:03:28;;;;;;;6.18;2.10;;;16.20;73.20;;;;;;6229670;22;86901;-80
2023/04/23 09:05:54;;;;;;;7.22;2.50;;;16.10;73.90;;;;;;6205334;22;86142;-81
2023/04/23 09:08:20;;;;;;;7.30;1.65;;;16.10;74.60;;;;;;6238940;22;85745;-81
2023/04/23 09:10:47;;;;;;;7.07;2.75;;;16.00;71.90;;;;;;6238758;22;87417;-81
2023/04/23 09:13:13;;;;;;;8.25;2.30;;;15.90;73.50;;;;;;6239706;22;85958;-81
2023/04/23 09:15:42;;;;;;;4.90;2.20;;;15.90;75.50;;;;;;6218975;22;87643;-81
2023/04/23 09:18:28;;;;;;;9.52;2.92;;;15.80;73.50;;;;;;6218404;22;85549;-81
2023/04/23 09:23:33;;;;;;;7.50;2.42;;;15.90;75.20;;;;;;6176194;22;88208;-80
2023/04/23 09:26:01;;;;;;;6.80;2.72;;;16.00;73.80;;;;;;6200387;22;85906;-80
2023/04/23 09:28:35;;;;;;;7.22;2.15;;;16.00;74.90;;;;;;6149723;22;85959;-80
2023/04/23 09:31:22;;;;;;;5.43;2.27;;;16.10;75.60;;;;;;6167222;22;86075;-80
2023/04/23 09:34:08;;;;;;;7.03;2.08;;;16.20;72.90;;;;;;6144046;22;88808;-80
2023/04/23 09:36:36;;;;;;;4.75;1.95;;;16.30;74.00;;;;;;6059820;23;86066;-80
2023/04/23 09:39:24;;;;;;;5.88;1.98;;;16.40;71.40;;;;;;6055521;23;85859;-80
2023/04/23 09:41:52;;;;;;;6.57;1.70;;;16.40;69.70;;;;;;6029090;23;87596;-80
2023/04/23 09:44:40;;;;;;;8.10;1.58;;;16.40;71.80;;;;;;6058540;23;85991;-80
2023/04/23 09:47:09;;;;;;;5.43;1.80;;;16.40;69.20;;;;;;6029767;23;85851;-80
2023/04/23 09:49:47;;;;;;;6.20;1.75;;;16.20;70.40;;;;;;6029779;23;85990;-81
2023/04/23 09:52:37;;;;;;;7.85;2.42;;;16.20;71.70;;;;;;6006927;23;88090;-78
2023/04/23 09:55:07;;;;;;;5.45;1.73;;;16.10;73.10;;;;;;5955136;23;86052;-80
2023/04/23 09:57:37;;;;;;;6.80;1.88;;;16.10;72.60;;;;;;6020093;23;85823;-80
2023/04/23 10:19:47;;;;;;;11.05;1.70;;;16.90;66.80;;;;;;6167744;22;87168;-79
2023/04/23 10:37:47;;;;;;;3.30;1.02;;;16.90;66.40;;;;;;6228036;22;87081;-80
2023/04/23 10:41:02;;;;;;;13.13;2.15;;;16.90;66.90;;;;;;6247044;22;90241;-80
2023/04/23 10:43:55;;;;;;;8.20;1.48;;;16.90;66.90;;;;;;6105518;22;86181;-81
2023/04/23 10:47:12;;;;;;;6.85;1.40;;;16.80;66.60;;;;;;6098970;23;85360;-81
2023/04/23 10:52:41;;;;;;;5.15;1.20;;;16.70;71.00;;;;;;6252243;22;85615;-81
2023/04/23 10:55:41;;;;;;;23.63;2.42;;;16.80;66.30;;;;;;6225423;22;88895;-80
2023/04/23 10:58:48;;;;;;;5.90;1.40;;;16.80;67.30;;;;;;6154820;23;85751;-80
2023/04/23 11:01:34;;;;;;;7.00;1.10;;;16.90;66.30;;;;;;6189072;22;87467;-81
2023/04/23 11:04:51;;;;;;;8.07;1.48;;;17.00;68.20;;;;;;6208723;22;90876;-81
2023/04/23 11:08:36;;;;;;;6.50;1.85;;;17.00;66.80;;;;;;6150727;22;90755;-79
2023/04/23 11:18:26;;;;;;;5.63;1.00;;;17.60;64.50;;;;;;6212726;22;87855;-81
2023/04/23 11:21:13;;;;;;;3.90;0.90;;;17.80;64.10;;;;;;6177387;22;87650;-80
2023/04/23 11:23:39;;;;;;;7.60;1.17;;;17.80;61.60;;;;;;6211344;22;85095;-80
2023/04/23 11:26:05;;;;;;;10.63;1.63;;;18.00;60.50;;;;;;6215346;22;85622;-81
2023/04/23 11:28:51;;;;;;;7.75;1.10;;;18.10;61.10;;;;;;6179326;22;89575;-80
2023/04/23 11:33:53;;;;;;;7.97;1.40;;;18.40;60.50;;;;;;6195891;22;88096;-79
2023/04/23 12:54:54;;;;;;;5.85;1.08;;;17.50;60.30;;;;;;6222367;22;88378;-81
2023/04/23 13:20:50;;;;;;;5.88;1.05;;;15.60;71.10;;;;;;6230252;22;85683;-81
2023/04/23 13:23:23;;;;;;;6.00;1.48;;;15.50;73.00;;;;;;6196473;22;88954;-82
2023/04/23 13:26:36;;;;;;;6.07;1.13;;;15.40;73.70;;;;;;6169754;22;85202;-82
2023/04/23 13:29:48;;;;;;;4.05;1.17;;;15.40;73.20;;;;;;6071420;23;85522;-81
2023/04/23 13:32:25;;;;;;;5.28;1.10;;;15.40;73.60;;;;;;5984735;23;87330;-81
2023/04/23 13:45:15;;;;;;;2.33;0.63;;;15.30;71.70;;;;;;6209455;22;87532;-81
2023/04/23 13:47:41;;;;;;;3.90;0.50;;;15.20;73.40;;;;;;6233636;22;86383;-81
2023/04/23 13:50:10;;;;;;;4.00;0.63;;;15.20;75.50;;;;;;6163959;22;85310;-81
2023/04/23 13:52:38;;;;;;;2.67;0.77;;;15.30;74.90;;;;;;6151741;23;87863;-81
2023/04/23 13:55:34;;;;;;;3.05;0.60;;;15.30;74.60;;;;;;6125118;23;85243;-80
2023/04/23 13:58:18;;;;;;;1.65;0.50;;;15.30;75.00;;;;;;6071412;23;85420;-81
2023/04/23 14:01:14;;;;;;;1.70;0.60;;;15.20;76.10;;;;;;6070846;23;86254;-79
2023/04/23 14:03:40;;;;;;;2.42;0.60;;;15.20;75.20;;;;;;5974579;23;88728;-80
2023/04/23 14:08:53;;;;;;;4.05;0.85;;;15.00;79.50;;;;;;6221141;22;85978;-81
2023/04/23 14:11:21;;;;;;;1.40;0.50;;;15.10;78.40;;;;;;6229762;22;85707;-81
2023/04/23 14:13:47;;;;;;;5.03;1.20;;;15.00;78.90;;;;;;6226613;22;88886;-81
2023/04/23 14:16:13;;;;;;;2.10;0.80;;;15.00;82.30;;;;;;6232026;22;85548;-81
2023/04/23 14:25:41;;;;;;;2.22;0.95;;;14.90;84.20;;;;;;6244845;22;89385;-81
2023/04/23 14:28:44;;;;;;;3.80;1.08;;;14.90;84.90;;;;;;6246269;22;85307;-81
2023/04/23 14:31:10;;;;;;;5.20;1.42;;;14.90;86.20;;;;;;6084420;23;87623;-78
2023/04/23 14:33:41;;;;;;;4.68;1.00;;;15.00;87.60;;;;;;6174236;22;87663;-80
2023/04/23 14:36:07;;;;;;;6.38;1.15;;;15.00;87.10;;;;;;6225581;22;87393;-79
2023/04/23 14:38:34;;;;;;;3.90;1.20;;;14.90;85.30;;;;;;6233715;22;86063;-81
2023/04/23 14:41:00;;;;;;;4.78;1.00;;;14.90;87.70;;;;;;6127444;22;86153;-80
2023/04/23 14:43:26;;;;;;;9.95;1.50;;;15.00;87.00;;;;;;6228328;22;86171;-80
2023/04/23 14:45:51;;;;;;;2.80;1.20;;;15.10;87.60;;;;;;6229400;22;86866;-80
2023/04/23 14:48:17;;;;;;;3.47;1.52;;;15.10;83.40;;;;;;6222166;22;85877;-79
2023/04/23 14:50:49;;;;;;;2.03;1.30;;;15.10;85.00;;;;;;6185571;22;87251;-80
2023/04/23 14:53:15;;;;;;;2.88;1.25;;;15.10;85.90;;;;;;6165618;22;86032;-80
2023/04/23 14:55:42;;;;;;;4.22;1.15;;;15.00;83.90;;;;;;6189646;22;90403;-80
2023/04/23 14:58:07;;;;;;;3.00;1.10;;;15.00;84.60;;;;;;6190702;22;87870;-79
2023/04/23 15:00:33;;;;;;;3.42;1.17;;;14.90;85.00;;;;;;6191814;22;87692;-79
2023/04/23 15:03:40;;;;;;;3.58;1.27;;;14.90;82.90;;;;;;6163833;22;86175;-81
2023/04/23 15:06:06;;;;;;;2.53;1.25;;;14.90;85.00;;;;;;6132390;23;86271;-78
2023/04/23 15:08:32;;;;;;;3.97;1.35;;;14.80;84.10;;;;;;6099749;23;88190;-79
2023/04/23 15:10:58;;;;;;;3.60;1.08;;;14.80;84.40;;;;;;6143269;22;85905;-80
2023/04/23 15:13:30;;;;;;;2.42;1.27;;;14.80;83.60;;;;;;6107269;23;85881;-80
2023/04/23 15:16:01;;;;;;;3.25;1.35;;;14.90;85.40;;;;;;6109446;23;90065;-80
2023/04/23 15:18:27;;;;;;;3.25;1.17;;;14.90;85.60;;;;;;6132631;23;85910;-80
2023/04/23 15:20:54;;;;;;;3.92;1.40;;;15.10;85.80;;;;;;6108290;23;86252;-80
2023/04/23 15:23:20;;;;;;;4.78;1.17;;;15.20;83.40;;;;;;6131133;23;86364;-80
2023/04/23 15:25:48;;;;;;;3.53;0.90;;;15.20;81.40;;;;;;6105764;23;87932;-80
2023/04/23 15:28:13;;;;;;;1.88;1.00;;;15.30;83.10;;;;;;6132741;23;86352;-80
2023/04/23 15:30:42;;;;;;;1.95;1.02;;;15.40;83.20;;;;;;6103381;23;86270;-80
2023/04/23 15:33:07;;;;;;;3.67;1.05;;;15.40;81.00;;;;;;6129008;23;85936;-80
2023/04/23 15:35:33;;;;;;;4.28;1.90;;;15.40;79.10;;;;;;6129617;23;86575;-80
2023/04/23 15:37:59;;;;;;;2.35;1.05;;;15.40;81.70;;;;;;6188129;22;86446;-80
2023/04/23 15:40:28;;;;;;;4.13;1.13;;;15.40;79.90;;;;;;6192067;22;85736;-80
2023/04/23 15:42:59;;;;;;;2.28;1.02;;;15.30;81.10;;;;;;6205806;22;86183;-80
2023/04/23 15:45:24;;;;;;;6.10;2.38;;;15.30;81.30;;;;;;6219759;22;87083;-80
2023/04/23 15:47:50;;;;;;;4.28;1.52;;;15.30;82.10;;;;;;6221126;22;86891;-80
2023/04/23 15:50:19;;;;;;;2.25;1.20;;;15.30;81.20;;;;;;6200844;22;86299;-80
2023/04/23 15:55:34;;;;;;;2.03;0.88;;;15.20;80.50;;;;;;6219095;22;88470;-80
2023/04/23 15:58:06;;;;;;;3.45;0.80;;;15.10;80.20;;;;;;6152601;22;88964;-80
2023/04/23 16:00:42;;;;;;;1.40;0.93;;;15.00;81.50;;;;;;6152299;22;86205;-81
2023/04/23 16:03:59;;;;;;;1.50;0.85;;;15.00;82.10;;;;;;6119732;23;85589;-81
2023/04/23 16:06:48;;;;;;;2.13;0.98;;;14.90;81.60;;;;;;6116285;23;86570;-81
2023/04/23 16:13:11;;;;;;;2.22;1.00;;;14.80;80.60;;;;;;6061764;23;86420;-80
2023/04/23 16:57:18;;;;;;;0.70;0.47;;;14.60;79.30;;;;;;6204083;22;86064;-81
2023/04/23 17:10:10;;;;;;;2.35;0.50;;;14.50;81.90;;;;;;6169851;22;87832;-82
2023/04/23 17:12:36;;;;;;;1.45;0.75;;;14.50;80.40;;;;;;6228029;22;86054;-80
2023/04/23 17:15:03;;;;;;;1.38;0.60;;;14.40;81.10;;;;;;6198292;22;85913;-80
2023/04/23 17:17:28;;;;;;;3.75;0.70;;;14.40;81.70;;;;;;6198568;22;85924;-81
2023/04/23 17:19:54;;;;;;;2.22;0.50;;;14.40;81.90;;;;;;6226529;22;86923;-80
2023/04/23 17:22:20;;;;;;;1.98;0.60;;;14.30;81.80;;;;;;6200399;22;88917;-81
2023/04/23 17:27:43;;;;;;;2.22;0.70;;;14.30;82.20;;;;;;6251435;22;87326;-81
2023/04/23 17:30:10;;;;;;;1.75;0.40;;;14.20;83.50;;;;;;6235361;22;88201;-81
2023/04/23 17:32:36;;;;;;;3.15;0.60;;;14.20;84.10;;;;;;6161963;22;87792;-80
2023/04/23 17:42:48;;;;;;;1.83;0.40;;;13.90;86.30;;;;;;6188603;22;87701;-81
2023/04/23 17:45:14;;;;;;;3.35;0.40;;;13.90;85.00;;;;;;6212860;22;85782;-80
2023/04/23 17:48:00;;;;;;;1.83;0.38;;;13.70;83.30;;;;;;6238795;22;85640;-81
2023/04/23 17:50:27;;;;;;;1.83;0.28;;;13.60;81.00;;;;;;6067399;23;87973;-80
2023/04/23 17:52:53;;;;;;;0.35;0.20;;;13.40;77.70;;;;;;6146285;22;86539;-81
2023/04/23 18:03:28;;;;;;;0.10;0.10;;;13.10;79.20;;;;;;6162059;22;87622;-79
2023/04/23 18:06:48;;;;;;;0.85;0.20;;;13.00;76.30;;;;;;6131928;22;84984;-81
2023/04/23 18:25:48;;;;;;;0.10;0.10;;;12.20;80.40;;;;;;6237537;22;85948;-82
2023/04/23 18:29:04;;;;;;;0.65;0.15;;;12.10;83.10;;;;;;6073058;23;87217;-81
2023/04/23 18:40:06;;;;;;;0.90;0.20;;;11.30;90.00;;;;;;6254348;22;85844;-80
2023/04/23 18:42:48;;;;;;;0.20;0.20;;;11.10;91.30;;;;;;6041674;23;85593;-80
2023/04/23 18:45:17;;;;;;;0.50;0.30;;;10.90;91.90;;;;;;6014073;23;86352;-80
2023/04/23 18:48:28;;;;;;;0.20;0.20;;;10.90;92.50;;;;;;5998248;23;88167;-80
2023/04/23 18:51:23;;;;;;;0.55;0.22;;;10.80;92.70;;;;;;5826145;23;85349;-80
2023/04/23 18:53:49;;;;;;;2.08;0.30;;;10.70;93.00;;;;;;5818643;24;85744;-80
2023/04/23 18:56:15;;;;;;;0.63;0.30;;;10.60;93.10;;;;;;5812488;24;85329;-80
2023/04/23 18:58:41;;;;;;;0.50;0.28;;;10.50;93.40;;;;;;5807194;24;86635;-80
2023/04/23 19:07:50;;;;;;;1.10;0.30;;;10.50;92.90;;;;;;5799442;24;85843;-80
2023/04/23 19:10:16;;;;;;;1.92;0.43;;;10.50;93.20;;;;;;5803078;24;89736;-80
2023/04/23 19:12:43;;;;;;;1.50;0.45;;;10.50;93.30;;;;;;5803797;24;88858;-80
2023/04/23 19:15:09;;;;;;;0.70;0.30;;;10.50;93.10;;;;;;5848386;24;85655;-78
2023/04/23 19:24:24;;;;;;;1.20;0.52;;;10.40;93.20;;;;;;6044091;23;85822;-79
2023/04/23 19:26:50;;;;;;;0.68;0.30;;;10.40;92.50;;;;;;6141414;22;85666;-80
2023/04/23 19:29:15;;;;;;;0.95;0.40;;;10.50;92.30;;;;;;6231190;22;85569;-80
2023/04/23 19:31:41;;;;;;;0.88;0.30;;;10.50;92.30;;;;;;6231768;22;86650;-79
2023/04/23 19:34:07;;;;;;;2.15;0.40;;;10.50;92.40;;;;;;6232644;22;86165;-80
2023/04/23 19:36:32;;;;;;;2.22;0.60;;;10.50;92.20;;;;;;6227805;22;86267;-80
2023/04/23 19:38:58;;;;;;;0.90;0.75;;;10.40;92.80;;;;;;6228179;22;86361;-80
2023/04/23 19:41:24;;;;;;;0.98;0.50;;;10.40;92.70;;;;;;6228353;22;88835;-80
2023/04/23 19:43:50;;;;;;;5.57;0.68;;;10.30;93.70;;;;;;6197429;22;86537;-80
2023/04/23 19:46:16;;;;;;;0.80;0.57;;;10.20;94.10;;;;;;6169534;22;85857;-79
2023/04/23 19:48:42;;;;;;;3.13;0.60;;;10.20;94.10;;;;;;6165867;22;85562;-79
2023/04/23 19:51:07;;;;;;;3.75;0.90;;;10.10;94.20;;;;;;6164081;22;89984;-80
2023/04/23 19:53:33;;;;;;;2.97;1.08;;;10.10;94.40;;;;;;6186096;22;85844;-79
2023/04/23 19:55:58;;;;;;;1.67;0.80;;;10.10;94.50;;;;;;6160929;22;85787;-79
2023/04/23 19:58:24;;;;;;;2.38;0.70;;;10.10;94.00;;;;;;6191777;22;85604;-78
2023/04/23 20:00:51;;;;;;;1.67;1.10;;;10.10;93.70;;;;;;6189468;22;86312;-80
2023/04/23 20:03:16;;;;;;;5.55;0.90;;;10.10;94.10;;;;;;6164796;22;88574;-79
2023/04/23 20:05:43;;;;;;;3.28;0.80;;;10.10;93.40;;;;;;6188960;22;86535;-79
2023/04/23 20:10:45;;;;;;;4.05;0.90;;;10.20;93.10;;;;;;6213783;22;87398;-81
2023/04/23 20:13:14;;;;;;;4.47;0.75;;;10.30;92.20;;;;;;6185426;22;88372;-81
2023/04/23 20:16:03;;;;;;;2.70;0.85;;;10.40;92.00;;;;;;6040791;23;85732;-80
2023/04/23 20:18:34;;;;;;;3.50;0.75;;;10.40;92.10;;;;;;6047344;23;85996;-81
2023/04/23 20:21:00;;;;;;;3.42;0.77;;;10.40;91.60;;;;;;6058716;23;88296;-80
2023/04/23 20:23:29;;;;;;;1.67;0.60;;;10.50;91.50;;;;;;6034211;23;87644;-81
2023/04/23 20:25:58;;;;;;;3.15;0.80;;;10.40;91.50;;;;;;6054339;23;84982;-81
2023/04/23 20:28:49;;;;;;;1.45;0.50;;;10.40;91.50;;;;;;6043204;23;85091;-81
2023/04/23 20:31:15;;;;;;;1.80;0.60;;;10.40;91.40;;;;;;6004089;23;92581;-81
2023/04/23 20:34:01;;;;;;;2.33;0.80;;;10.50;91.40;;;;;;6034002;23;91269;-80
2023/04/23 20:36:29;;;;;;;3.05;0.88;;;10.40;91.30;;;;;;6013555;23;85236;-81
2023/04/23 20:39:07;;;;;;;1.85;0.90;;;10.40;91.40;;;;;;6014007;23;85832;-81
2023/04/23 20:41:54;;;;;;;1.80;0.50;;;10.40;91.50;;;;;;6015955;23;87312;-81
2023/04/23 20:44:23;;;;;;;0.88;0.77;;;10.40;91.50;;;;;;5986325;23;87612;-82
2023/04/23 20:47:11;;;;;;;3.63;0.70;;;10.40;91.60;;;;;;6007185;23;86019;-82
2023/04/23 20:49:59;;;;;;;1.50;0.95;;;10.40;91.40;;;;;;6019718;23;85001;-82
2023/04/23 20:52:47;;;;;;;2.85;1.00;;;10.40;91.40;;;;;;6121673;22;85815;-82
2023/04/23 20:55:13;;;;;;;4.15;1.20;;;10.50;91.40;;;;;;6161457;22;87089;-81
2023/04/23 20:58:00;;;;;;;3.15;1.25;;;10.50;91.40;;;;;;6160540;22;85236;-81
2023/04/23 21:00:30;;;;;;;2.08;1.10;;;10.50;91.40;;;;;;6108810;23;85948;-84
2023/04/23 21:03:22;;;;;;;1.85;1.10;;;10.60;91.40;;;;;;6007627;23;87804;-82
2023/04/23 21:05:50;;;;;;;3.38;1.27;;;10.60;91.60;;;;;;6069218;23;86440;-81
2023/04/23 21:08:41;;;;;;;3.63;1.45;;;10.60;91.40;;;;;;6058499;23;85670;-81
2023/04/23 21:11:49;;;;;;;3.72;1.50;;;10.60;91.50;;;;;;5911346;23;85397;-81
2023/04/23 21:14:21;;;;;;;2.45;1.50;;;10.50;91.60;;;;;;5869385;24;86922;-81
2023/04/23 21:16:48;;;;;;;3.55;1.15;;;10.50;91.70;;;;;;5867034;23;87994;-81
2023/04/23 21:19:14;;;;;;;3.03;1.60;;;10.40;91.80;;;;;;5867081;24;85601;-81
2023/04/23 21:21:47;;;;;;;3.20;1.35;;;10.40;91.80;;;;;;5867018;24;91146;-81
2023/04/23 21:24:13;;;;;;;3.20;1.67;;;10.40;91.80;;;;;;5834979;24;89299;-81
2023/04/23 21:26:43;;;;;;;2.08;1.35;;;10.40;91.80;;;;;;5813117;24;87325;-81
2023/04/23 21:29:10;;;;;;;3.35;1.60;;;10.50;91.80;;;;;;5791281;24;85339;-81
2023/04/23 21:31:45;;;;;;;4.57;1.60;;;10.50;91.50;;;;;;5814126;24;85667;-80
2023/04/23 21:34:18;;;;;;;3.78;1.70;;;10.50;91.50;;;;;;5815498;24;89564;-81
2023/04/23 21:37:25;;;;;;;5.40;1.65;;;10.50;91.70;;;;;;5778061;24;89663;-82
2023/04/23 21:40:11;;;;;;;2.33;1.50;;;10.40;91.70;;;;;;5761091;24;87112;-81
2023/04/23 21:42:57;;;;;;;8.60;1.70;;;10.40;91.80;;;;;;5761051;24;86525;-80
2023/04/23 21:45:43;;;;;;;5.03;1.90;;;10.40;91.90;;;;;;5750839;24;89430;-82
2023/04/23 21:48:30;;;;;;;2.55;1.83;;;10.40;91.70;;;;;;5776897;24;85438;-81
2023/04/23 21:50:57;;;;;;;3.80;1.73;;;10.40;91.60;;;;;;5812702;24;85241;-81
2023/04/23 21:53:46;;;;;;;5.10;1.75;;;10.40;91.60;;;;;;5824470;23;85336;-81
2023/04/23 21:56:34;;;;;;;3.67;1.92;;;10.30;91.50;;;;;;5847823;23;85693;-81
2023/04/23 22:00:00;;;;;;;3.90;2.03;;;10.30;91.60;;;;;;5869514;23;85954;-81
2023/04/23 22:02:33;;;;;;;4.80;3.40;;;10.30;91.10;;;;;;5734813;24;88257;-81
2023/04/23 22:05:00;;;;;;;4.65;2.90;;;10.20;91.00;;;;;;5672339;24;85152;-81
2023/04/23 22:07:52;;;;;;;6.63;2.78;;;10.10;90.90;;;;;;5754230;24;85623;-82
2023/04/23 22:10:23;;;;;;;6.05;3.15;;;10.00;90.30;;;;;;5739863;24;88066;-81
2023/04/23 22:13:12;;;;;;;9.25;3.08;;;9.90;90.80;;;;;;5738175;24;86821;-81
2023/04/23 22:15:43;;;;;;;10.00;4.38;;;9.80;90.70;;;;;;5777275;24;85020;-81
2023/04/23 22:18:12;;;;;;;6.22;3.35;;;9.80;90.70;;;;;;5766386;24;87142;-82
2023/04/23 22:21:01;;;;;;;4.32;2.92;;;9.70;90.60;;;;;;5756627;24;86089;-81
2023/04/23 22:24:06;;;;;;;5.65;3.00;;;9.70;90.40;;;;;;5765270;24;85323;-82
2023/04/23 22:26:52;;;;;;;5.63;3.20;;;9.70;90.40;;;;;;5787538;24;86096;-81
2023/04/23 22:29:18;;;;;;;9.55;3.00;;;9.70;90.20;;;;;;5781806;24;86403;-80
2023/04/23 22:31:44;;;;;;;4.88;3.45;;;9.70;90.40;;;;;;5762403;24;88830;-81
2023/04/23 22:34:30;;;;;;;7.18;3.78;;;9.70;90.40;;;;;;5770005;24;85503;-81
2023/04/23 22:36:58;;;;;;;8.73;3.40;;;9.60;90.30;;;;;;5797739;24;84927;-82
2023/04/23 22:39:27;;;;;;;7.55;3.00;;;9.70;90.30;;;;;;5783710;24;87024;-82
2023/04/23 22:41:53;;;;;;;10.98;3.85;;;9.60;90.50;;;;;;5762659;24;86475;-81
2023/04/23 22:44:19;;;;;;;5.20;3.38;;;9.60;90.40;;;;;;5787194;23;85425;-82
2023/04/23 22:46:45;;;;;;;7.82;3.72;;;9.60;90.10;;;;;;5891926;23;86202;-81
2023/04/23 22:49:18;;;;;;;8.00;3.53;;;9.60;90.30;;;;;;5876217;23;87989;-81
2023/04/23 22:52:42;;;;;;;6.30;4.03;;;9.60;90.00;;;;;;5898731;23;89663;-82
2023/04/23 22:55:30;;;;;;;7.47;3.65;;;9.60;89.40;;;;;;5887510;23;85849;-82
2023/04/23 22:57:56;;;;;;;10.40;4.65;;;9.60;89.10;;;;;;5891855;23;85553;-81
2023/04/23 23:00:27;;;;;;;9.27;4.38;;;9.60;88.80;;;;;;5860139;23;88361;-82
2023/04/23 23:03:33;;;;;;;8.10;4.32;;;9.60;89.00;;;;;;5873752;23;87681;-81
2023/04/23 23:06:23;;;;;;;11.02;5.05;;;9.60;89.60;;;;;;5815319;24;85385;-82
2023/04/23 23:08:50;;;;;;;9.52;5.35;;;9.60;89.10;;;;;;5789281;24;85640;-81
2023/04/23 23:11:17;;;;;;;8.85;5.20;;;9.60;90.00;;;;;;5754876;24;88581;-81
2023/04/23 23:14:06;;;;;;;9.50;5.43;;;9.60;89.20;;;;;;5788599;24;85460;-81
2023/04/23 23:16:32;;;;;;;9.88;5.88;;;9.60;89.50;;;;;;5791800;24;85818;-84
2023/04/23 23:18:58;;;;;;;10.40;5.60;;;9.60;89.80;;;;;;5789342;24;85510;-82
2023/04/23 23:21:25;;;;;;;15.70;5.95;;;9.60;89.60;;;;;;5789040;24;86545;-81
2023/04/23 23:24:31;;;;;;;8.85;5.47;;;9.60;89.80;;;;;;5777415;24;85503;-82
2023/04/23 23:27:00;;;;;;;11.27;5.60;;;9.60;89.90;;;;;;5788453;24;85469;-81
2023/04/23 23:29:45;;;;;;;9.95;5.93;;;9.60;89.50;;;;;;5759426;24;85875;-81
2023/04/23 23:32:14;;;;;;;10.23;5.72;;;9.60;90.10;;;;;;5787064;24;89214;-81
2023/04/23 23:34:40;;;;;;;8.80;6.03;;;9.60;90.10;;;;;;5785646;24;87304;-80
2023/04/23 23:37:26;;;;;;;9.80;6.25;;;9.60;90.30;;;;;;5826024;24;85306;-82
2023/04/23 23:40:12;;;;;;;9.30;6.20;;;9.60;90.00;;;;;;5870127;24;86024;-82
2023/04/23 23:42:38;;;;;;;11.35;6.25;;;9.60;90.00;;;;;;5857831;24;85942;-81
2023/04/23 23:45:05;;;;;;;11.25;6.55;;;9.60;90.30;;;;;;5838173;24;86981;-82
2023/04/23 23:47:52;;;;;;;11.80;6.45;;;9.60;90.40;;;;;;5894286;23;85402;-82
2023/04/23 23:50:19;;;;;;;16.08;7.57;;;9.60;90.60;;;;;;5896561;23;85067;-81
2023/04/23 23:52:48;;;;;;;17.88;9.27;;;9.60;90.70;;;;;;5889116;23;86878;-81
2023/04/23 23:55:14;;;;;;;18.38;8.88;;;9.60;90.50;;;;;;5916993;23;87777;-81
2023/04/23 23:58:01;;;;;;;15.13;9.35;;;9.60;90.60;;;;;;5899113;23;86996;-82
